createdAt,value
2024-05-09T00:00:36.475Z,98269.84
2024-05-09T00:02:15.516Z,98265.03
2024-05-09T00:03:49.235Z,98273.09
2024-05-09T00:05:25.455Z,98272.22
2024-05-09T00:07:01.455Z,98264.09
2024-05-09T00:08:35.154Z,98259.13
2024-05-09T00:10:18.279Z,98263.47
2024-05-09T00:11:58.855Z,98273.44
2024-05-09T00:13:35.138Z,98273.72
2024-05-09T00:15:09.294Z,98275.69
2024-05-09T00:16:48.609Z,98272.47
2024-05-09T00:18:23.800Z,98263.63
2024-05-09T00:20:00.069Z,98269.16
2024-05-09T00:21:34.888Z,98271.75
2024-05-09T00:23:12.407Z,98274.16
2024-05-09T00:24:46.684Z,98277.34
2024-05-09T00:26:23.062Z,98273.09
2024-05-09T00:27:56.368Z,98277.00
2024-05-09T00:29:32.622Z,98267.56
2024-05-09T00:31:05.947Z,98271.59
2024-05-09T00:32:44.638Z,98275.59
2024-05-09T00:34:20.895Z,98275.38
2024-05-09T00:35:54.185Z,98267.47
2024-05-09T00:37:30.032Z,98274.03
2024-05-09T00:39:03.616Z,98285.31
2024-05-09T00:40:42.540Z,98270.50
2024-05-09T00:42:19.522Z,98264.53
2024-05-09T00:43:53.069Z,98268.31
2024-05-09T00:45:28.875Z,98269.38
2024-05-09T00:47:02.108Z,98259.88
2024-05-09T00:48:40.842Z,98258.47
2024-05-09T00:50:19.387Z,98266.31
2024-05-09T00:52:02.376Z,98265.59
2024-05-09T00:53:35.704Z,98264.47
2024-05-09T00:55:12.120Z,98270.41
2024-05-09T00:56:45.292Z,98255.03
2024-05-09T00:58:25.785Z,98260.28
2024-05-09T01:00:00.543Z,98261.94
2024-05-09T01:01:37.142Z,98262.16
2024-05-09T01:03:12.492Z,98271.13
2024-05-09T01:04:53.567Z,98261.03
2024-05-09T01:06:27.166Z,98266.09
2024-05-09T01:08:03.450Z,98266.69
2024-05-09T01:09:37.039Z,98263.63
2024-05-09T01:11:12.983Z,98250.16
2024-05-09T01:12:46.252Z,98262.81
2024-05-09T01:14:22.572Z,98249.81
2024-05-09T01:15:55.939Z,98261.34
2024-05-09T01:17:32.384Z,98259.97
2024-05-09T01:19:15.131Z,98259.41
2024-05-09T01:20:53.778Z,98270.41
2024-05-09T01:22:30.955Z,98267.44
2024-05-09T01:24:07.287Z,98259.09
2024-05-09T01:25:44.138Z,98265.00
2024-05-09T01:27:18.119Z,98262.31
2024-05-09T01:28:54.111Z,98252.81
2024-05-09T01:30:34.178Z,98256.06
2024-05-09T01:32:12.360Z,98257.69
2024-05-09T01:33:45.927Z,98263.31
2024-05-09T01:35:23.811Z,98252.31
2024-05-09T01:36:59.684Z,98249.22
2024-05-09T01:38:33.149Z,98257.09
2024-05-09T01:40:18.421Z,98250.44
2024-05-09T01:41:55.677Z,98252.22
2024-05-09T01:43:31.733Z,98257.84
2024-05-09T01:45:06.150Z,98259.81
2024-05-09T01:46:42.041Z,98254.56
2024-05-09T01:48:18.205Z,98253.81
2024-05-09T01:49:51.824Z,98256.81
2024-05-09T01:51:27.716Z,98247.16
2024-05-09T01:53:01.205Z,98248.84
2024-05-09T01:54:37.851Z,98256.63
2024-05-09T01:56:16.460Z,98252.41
2024-05-09T01:57:51.470Z,98245.94
2024-05-09T01:59:27.812Z,98251.34
2024-05-09T02:01:03.814Z,98249.97
2024-05-09T02:02:37.111Z,98248.06
2024-05-09T02:04:13.476Z,98254.28
2024-05-09T02:05:50.509Z,98248.91
2024-05-09T02:07:26.614Z,98243.28
2024-05-09T02:08:59.938Z,98249.94
2024-05-09T02:10:36.116Z,98247.28
2024-05-09T02:12:15.059Z,98255.38
2024-05-09T02:13:48.332Z,98262.94
2024-05-09T02:15:24.590Z,98258.66
2024-05-09T02:16:57.795Z,98256.22
2024-05-09T02:18:33.719Z,98255.66
2024-05-09T02:20:13.106Z,98247.53
2024-05-09T02:21:51.922Z,98250.50
2024-05-09T02:23:27.963Z,98247.53
2024-05-09T02:25:04.449Z,98249.97
2024-05-09T02:26:38.089Z,98256.19
2024-05-09T02:28:16.947Z,98256.72
2024-05-09T02:29:50.127Z,98256.94
2024-05-09T02:31:26.463Z,98257.19
2024-05-09T02:32:59.762Z,98250.97
2024-05-09T02:34:35.755Z,98260.66
2024-05-09T02:36:10.933Z,98263.00
2024-05-09T02:37:46.914Z,98260.88
2024-05-09T02:39:20.249Z,98258.16
2024-05-09T02:40:53.797Z,98259.47
2024-05-09T02:42:29.799Z,98261.56
2024-05-09T02:44:08.612Z,98257.78
2024-05-09T02:45:42.263Z,98253.72
2024-05-09T02:47:18.253Z,98247.78
2024-05-09T02:48:51.472Z,98269.03
2024-05-09T02:50:34.157Z,98260.13
2024-05-09T02:52:14.645Z,98252.91
2024-05-09T02:53:47.858Z,98251.66
2024-05-09T02:55:21.014Z,98256.16
2024-05-09T02:56:57.297Z,98251.66
2024-05-09T02:58:30.507Z,98246.59
2024-05-09T03:00:12.112Z,98258.47
2024-05-09T03:01:54.147Z,98262.06
2024-05-09T03:03:27.985Z,98259.63
2024-05-09T03:05:01.481Z,98254.16
2024-05-09T03:06:37.446Z,98242.31
2024-05-09T03:08:11.257Z,98248.28
2024-05-09T03:09:49.653Z,98250.13
2024-05-09T03:11:23.432Z,98243.16
2024-05-09T03:12:59.251Z,98245.34
2024-05-09T03:14:35.366Z,98253.06
2024-05-09T03:16:11.197Z,98247.19
2024-05-09T03:17:47.222Z,98252.56
2024-05-09T03:19:22.765Z,98245.72
2024-05-09T03:20:56.516Z,98238.19
2024-05-09T03:22:32.230Z,98252.81
2024-05-09T03:24:06.230Z,98249.25
2024-05-09T03:25:39.711Z,98243.53
2024-05-09T03:27:15.870Z,98246.25
2024-05-09T03:28:48.867Z,98254.00
2024-05-09T03:30:31.083Z,98249.25
2024-05-09T03:32:18.482Z,98254.41
2024-05-09T03:33:51.638Z,98260.88
2024-05-09T03:35:24.906Z,98248.41
2024-05-09T03:37:00.435Z,98262.69
2024-05-09T03:38:38.411Z,98256.47
2024-05-09T03:40:23.343Z,98260.00
2024-05-09T03:41:59.141Z,98251.63
2024-05-09T03:43:35.184Z,98250.53
2024-05-09T03:45:08.781Z,98258.44
2024-05-09T03:46:44.436Z,98251.19
2024-05-09T03:48:20.472Z,98248.38
2024-05-09T03:49:53.535Z,98246.69
2024-05-09T03:51:29.574Z,98252.94
2024-05-09T03:53:02.668Z,98244.50
2024-05-09T03:54:35.750Z,98241.81
2024-05-09T03:56:11.641Z,98248.91
2024-05-09T03:57:45.018Z,98243.50
2024-05-09T03:59:18.116Z,98248.53
2024-05-09T04:00:53.706Z,98251.00
2024-05-09T04:02:26.808Z,98243.25
2024-05-09T04:04:05.741Z,98220.88
2024-05-09T04:05:39.788Z,98227.03
2024-05-09T04:07:16.065Z,98242.41
2024-05-09T04:08:50.728Z,98237.03
2024-05-09T04:10:31.323Z,98241.41
2024-05-09T04:12:10.882Z,98244.13
2024-05-09T04:13:44.429Z,98251.22
2024-05-09T04:15:17.414Z,98244.75
2024-05-09T04:16:53.496Z,98245.69
2024-05-09T04:18:28.969Z,98247.44
2024-05-09T04:20:08.325Z,98250.63
2024-05-09T04:21:44.160Z,98253.41
2024-05-09T04:23:17.693Z,98254.06
2024-05-09T04:24:53.479Z,98245.69
2024-05-09T04:26:29.204Z,98263.97
2024-05-09T04:28:02.353Z,98253.56
2024-05-09T04:29:37.927Z,98261.44
2024-05-09T04:31:13.519Z,98266.75
2024-05-09T04:32:46.698Z,98262.78
2024-05-09T04:34:19.972Z,98260.81
2024-05-09T04:35:58.964Z,98262.22
2024-05-09T04:37:32.099Z,98260.44
2024-05-09T04:39:05.076Z,98269.88
2024-05-09T04:40:40.680Z,98266.84
2024-05-09T04:42:14.220Z,98259.03
2024-05-09T04:43:47.230Z,98272.56
2024-05-09T04:45:22.933Z,98270.34
2024-05-09T04:46:56.352Z,98262.63
2024-05-09T04:48:32.558Z,98269.47
2024-05-09T04:50:11.416Z,98264.84
2024-05-09T04:51:47.314Z,98269.69
2024-05-09T04:53:22.952Z,98264.56
2024-05-09T04:54:58.960Z,98269.44
2024-05-09T04:56:32.170Z,98263.22
2024-05-09T04:58:10.780Z,98261.63
2024-05-09T04:59:43.761Z,98258.47
2024-05-09T05:01:19.894Z,98268.97
2024-05-09T05:02:53.883Z,98263.09
2024-05-09T05:04:27.068Z,98271.50
2024-05-09T05:06:02.829Z,98271.81
2024-05-09T05:07:38.932Z,98265.13
2024-05-09T05:09:11.836Z,98266.47
2024-05-09T05:10:48.872Z,98275.66
2024-05-09T05:12:43.670Z,98268.56
2024-05-09T05:14:16.825Z,98277.81
2024-05-09T05:15:56.609Z,98279.19
2024-05-09T05:17:31.004Z,98285.41
2024-05-09T05:19:10.914Z,98287.31
2024-05-09T05:20:45.276Z,98290.00
2024-05-09T05:22:18.331Z,98282.69
2024-05-09T05:23:56.548Z,98293.78
2024-05-09T05:25:30.074Z,98298.34
2024-05-09T05:27:03.111Z,98301.34
2024-05-09T05:28:38.729Z,98299.44
2024-05-09T05:30:17.871Z,98292.13
2024-05-09T05:31:55.193Z,98300.44
2024-05-09T05:33:31.136Z,98304.16
2024-05-09T05:35:05.037Z,98306.94
2024-05-09T05:36:38.086Z,98311.50
2024-05-09T05:38:14.506Z,98313.38
2024-05-09T05:39:52.591Z,98320.72
2024-05-09T05:41:28.242Z,98318.75
2024-05-09T05:43:01.285Z,98328.19
2024-05-09T05:44:34.940Z,98336.56
2024-05-09T05:46:10.698Z,98329.53
2024-05-09T05:47:44.003Z,98330.34
2024-05-09T05:49:17.321Z,98327.75
2024-05-09T05:50:53.615Z,98339.16
2024-05-09T05:52:26.652Z,98353.66
2024-05-09T05:53:59.566Z,98354.66
2024-05-09T05:55:38.039Z,98370.81
2024-05-09T05:57:11.033Z,98379.25
2024-05-09T05:58:46.675Z,98406.88
2024-05-09T06:00:29.218Z,98427.03
2024-05-09T06:02:09.696Z,98456.03
2024-05-09T06:03:46.629Z,98487.00
2024-05-09T06:05:21.544Z,98564.44
2024-05-09T06:06:54.587Z,98576.53
2024-05-09T06:08:30.640Z,98579.31
2024-05-09T06:10:09.262Z,98585.16
2024-05-09T06:11:49.807Z,98592.16
2024-05-09T06:13:25.666Z,98606.06
2024-05-09T06:15:00.482Z,98639.22
2024-05-09T06:16:33.856Z,98643.53
2024-05-09T06:18:11.482Z,98645.53
2024-05-09T06:19:45.610Z,98650.69
2024-05-09T06:21:18.702Z,98662.31
2024-05-09T06:22:54.762Z,98649.41
2024-05-09T06:24:27.870Z,98649.47
2024-05-09T06:26:00.907Z,98653.84
2024-05-09T06:27:39.259Z,98651.00
2024-05-09T06:29:14.531Z,98666.72
2024-05-09T06:30:50.057Z,98675.75
2024-05-09T06:32:23.125Z,98675.06
2024-05-09T06:33:58.388Z,98678.50
2024-05-09T06:35:34.504Z,98663.06
2024-05-09T06:37:08.027Z,98682.22
2024-05-09T06:38:43.730Z,98677.31
2024-05-09T06:40:21.423Z,98646.63
2024-05-09T06:41:59.008Z,98658.59
2024-05-09T06:43:37.381Z,98669.63
2024-05-09T06:45:10.579Z,98679.00
2024-05-09T06:46:45.300Z,98675.50
2024-05-09T06:48:22.660Z,98714.25
2024-05-09T06:49:56.110Z,98718.50
2024-05-09T06:51:29.111Z,98713.06
2024-05-09T06:53:04.741Z,98723.16
2024-05-09T06:54:38.180Z,98728.69
2024-05-09T06:56:13.859Z,98684.06
2024-05-09T06:57:46.883Z,98703.16
2024-05-09T06:59:24.967Z,98721.13
2024-05-09T07:01:01.388Z,98677.28
2024-05-09T07:02:34.423Z,98735.16
2024-05-09T07:04:10.245Z,98741.41
2024-05-09T07:05:43.669Z,98735.25
2024-05-09T07:07:17.077Z,98716.94
2024-05-09T07:08:54.148Z,98781.47
2024-05-09T07:10:33.084Z,98764.63
2024-05-09T07:12:08.768Z,98699.94
2024-05-09T07:13:45.178Z,98693.50
2024-05-09T07:15:20.965Z,98719.44
2024-05-09T07:16:56.874Z,98733.91
2024-05-09T07:18:31.940Z,98737.75
2024-05-09T07:20:11.703Z,98763.38
2024-05-09T07:21:44.942Z,98755.31
2024-05-09T07:23:18.697Z,98774.34
2024-05-09T07:24:55.849Z,98795.31
2024-05-09T07:26:29.404Z,98785.75
2024-05-09T07:28:04.072Z,98763.97
2024-05-09T07:29:39.907Z,98742.09
2024-05-09T07:31:16.042Z,98741.66
2024-05-09T07:32:52.831Z,98769.69
2024-05-09T07:34:25.911Z,98788.91
2024-05-09T07:36:01.643Z,98739.81
2024-05-09T07:37:34.605Z,98747.59
2024-05-09T07:39:08.539Z,98778.94
2024-05-09T07:40:44.230Z,98772.13
2024-05-09T07:42:17.367Z,98776.13
2024-05-09T07:43:52.950Z,98758.09
2024-05-09T07:45:43.327Z,98751.25
2024-05-09T07:48:56.515Z,98776.91
2024-05-09T07:51:02.844Z,98781.22
2024-05-09T07:53:34.626Z,98746.94
2024-05-09T07:54:42.801Z,98742.91
2024-05-09T07:56:16.654Z,98743.31
2024-05-09T07:57:49.866Z,98771.31
2024-05-09T07:59:25.515Z,98751.72
2024-05-09T08:00:58.687Z,98775.63
2024-05-09T08:02:34.798Z,98803.22
2024-05-09T08:04:10.704Z,98770.03
2024-05-09T08:05:43.812Z,98789.81
2024-05-09T08:07:17.868Z,98804.31
2024-05-09T08:08:54.200Z,98779.53
2024-05-09T08:10:29.025Z,98811.47
2024-05-09T08:12:02.361Z,98779.28
2024-05-09T08:13:38.116Z,98800.81
2024-05-09T08:15:12.007Z,98791.28
2024-05-09T08:16:47.776Z,98828.84
2024-05-09T08:18:23.681Z,98769.38
2024-05-09T08:19:59.301Z,98795.84
2024-05-09T08:21:32.854Z,98842.53
2024-05-09T08:23:08.849Z,98794.41
2024-05-09T08:24:42.634Z,98766.75
2024-05-09T08:26:15.772Z,98778.78
2024-05-09T08:27:51.913Z,98822.88
2024-05-09T08:29:25.303Z,98806.59
2024-05-09T08:30:58.341Z,98806.03
2024-05-09T08:32:35.365Z,98818.19
2024-05-09T08:34:12.691Z,98784.34
2024-05-09T08:35:48.862Z,98769.13
2024-05-09T08:37:27.844Z,98755.78
2024-05-09T08:39:06.731Z,98667.69
2024-05-09T08:40:39.812Z,98612.50
2024-05-09T08:42:16.869Z,98595.13
2024-05-09T08:43:52.589Z,98589.25
2024-05-09T08:45:26.501Z,98576.41
2024-05-09T08:47:00.328Z,98640.94
2024-05-09T08:48:39.396Z,98685.41
2024-05-09T08:50:28.375Z,98661.63
2024-05-09T08:52:12.115Z,98610.84
2024-05-09T08:53:45.259Z,98524.34
2024-05-09T08:55:18.520Z,98562.69
2024-05-09T08:56:54.783Z,98538.59
2024-05-09T08:58:30.860Z,98527.56
2024-05-09T09:00:10.001Z,98524.09
2024-05-09T09:01:50.194Z,98528.53
2024-05-09T09:03:26.875Z,98586.59
2024-05-09T09:05:06.044Z,98574.22
2024-05-09T09:06:46.270Z,98576.72
2024-05-09T09:08:20.495Z,98578.69
2024-05-09T09:09:54.571Z,98593.34
2024-05-09T09:11:30.733Z,98588.31
2024-05-09T09:13:05.103Z,98587.84
2024-05-09T09:14:38.737Z,98629.69
2024-05-09T09:16:14.321Z,98637.34
2024-05-09T09:17:55.387Z,98619.53
2024-05-09T09:19:28.535Z,98605.53
2024-05-09T09:21:04.931Z,98602.56
2024-05-09T09:22:40.558Z,98562.63
2024-05-09T09:24:14.679Z,98589.06
2024-05-09T09:25:50.533Z,98593.56
2024-05-09T09:27:23.885Z,98625.84
2024-05-09T09:29:01.213Z,98648.28
2024-05-09T09:30:38.260Z,98672.97
2024-05-09T09:32:11.915Z,98681.06
2024-05-09T09:33:47.881Z,98660.09
2024-05-09T09:35:22.776Z,98672.22
2024-05-09T09:36:59.183Z,98663.63
2024-05-09T09:38:39.840Z,98652.47
2024-05-09T09:40:15.624Z,98626.94
2024-05-09T09:41:52.080Z,98626.19
2024-05-09T09:43:29.921Z,98626.25
2024-05-09T09:45:05.572Z,98620.13
2024-05-09T09:46:43.377Z,98592.25
2024-05-09T09:48:17.120Z,98545.28
2024-05-09T09:49:55.127Z,98605.72
2024-05-09T09:51:31.144Z,98618.34
2024-05-09T09:53:10.032Z,98617.06
2024-05-09T09:54:48.620Z,98619.66
2024-05-09T09:56:25.537Z,98639.47
2024-05-09T09:58:01.491Z,98634.44
2024-05-09T09:59:35.368Z,98629.31
2024-05-09T10:01:11.210Z,98636.28
2024-05-09T10:02:44.768Z,98639.59
2024-05-09T10:04:21.014Z,98641.59
2024-05-09T10:05:55.049Z,98655.03
2024-05-09T10:07:29.703Z,98641.69
2024-05-09T10:09:06.210Z,98659.47
2024-05-09T10:10:47.582Z,98709.84
2024-05-09T10:12:23.862Z,98739.31
2024-05-09T10:13:57.594Z,98682.94
2024-05-09T10:15:46.481Z,98708.75
2024-05-09T10:17:20.933Z,98661.47
2024-05-09T10:18:54.226Z,98631.31
2024-05-09T10:20:32.661Z,98610.19
2024-05-09T10:22:09.320Z,98612.97
2024-05-09T10:23:44.433Z,98590.72
2024-05-09T10:25:20.480Z,98601.19
2024-05-09T10:26:56.230Z,98634.91
2024-05-09T10:28:30.354Z,98606.69
2024-05-09T10:30:14.625Z,98602.06
2024-05-09T10:31:54.172Z,98633.03
2024-05-09T10:33:37.133Z,98661.88
2024-05-09T10:35:15.114Z,98631.50
2024-05-09T10:36:55.245Z,98570.38
2024-05-09T10:38:28.697Z,98572.88
2024-05-09T10:40:11.937Z,98586.00
2024-05-09T10:41:50.161Z,98657.06
2024-05-09T10:43:26.070Z,98600.88
2024-05-09T10:45:03.035Z,98629.16
2024-05-09T10:46:38.142Z,98620.75
2024-05-09T10:48:14.642Z,98557.78
2024-05-09T10:49:48.758Z,98499.47
2024-05-09T10:51:21.895Z,98463.47
2024-05-09T10:52:57.939Z,98468.19
2024-05-09T10:54:35.973Z,98447.88
2024-05-09T10:56:09.509Z,98419.44
2024-05-09T10:57:45.182Z,98422.72
2024-05-09T10:59:21.200Z,98413.28
2024-05-09T11:00:55.830Z,98434.53
2024-05-09T11:02:32.087Z,98438.38
2024-05-09T11:04:05.766Z,98462.66
2024-05-09T11:05:45.814Z,98488.41
2024-05-09T11:07:20.193Z,98516.06
2024-05-09T11:08:56.003Z,98519.38
2024-05-09T11:10:34.210Z,98518.56
2024-05-09T11:12:09.348Z,98519.44
2024-05-09T11:13:45.294Z,98535.34
2024-05-09T11:15:20.946Z,98517.16
2024-05-09T11:16:59.505Z,98499.06
2024-05-09T11:18:38.851Z,98521.16
2024-05-09T11:20:19.571Z,98540.75
2024-05-09T11:22:02.816Z,98518.69
2024-05-09T11:23:38.716Z,98496.72
2024-05-09T11:25:11.862Z,98514.47
2024-05-09T11:26:47.541Z,98510.13
2024-05-09T11:28:24.532Z,98508.19
2024-05-09T11:29:58.896Z,98517.09
2024-05-09T11:31:48.438Z,98474.81
2024-05-09T11:33:22.283Z,98480.38
2024-05-09T11:34:55.256Z,98461.72
2024-05-09T11:36:31.250Z,98450.88
2024-05-09T11:38:04.783Z,98453.69
2024-05-09T11:39:37.902Z,98447.38
2024-05-09T11:41:19.589Z,98459.66
2024-05-09T11:42:53.394Z,98444.97
2024-05-09T11:44:26.921Z,98469.53
2024-05-09T11:46:03.791Z,98466.53
2024-05-09T11:47:39.898Z,98432.28
2024-05-09T11:49:13.329Z,98429.25
2024-05-09T11:50:49.019Z,98443.97
2024-05-09T11:52:22.272Z,98466.09
2024-05-09T11:53:55.653Z,98485.03
2024-05-09T11:55:33.581Z,98498.09
2024-05-09T11:57:06.746Z,98479.13
2024-05-09T11:58:42.752Z,98442.91
2024-05-09T12:00:28.915Z,98422.59
2024-05-09T12:02:07.720Z,98395.25
2024-05-09T12:03:46.586Z,98389.22
2024-05-09T12:05:19.827Z,98365.00
2024-05-09T12:06:55.749Z,98356.72
2024-05-09T12:08:28.763Z,98349.75
2024-05-09T12:10:02.355Z,98344.84
2024-05-09T12:11:37.976Z,98350.84
2024-05-09T12:13:11.252Z,98358.72
2024-05-09T12:14:47.127Z,98361.47
2024-05-09T12:16:20.743Z,98361.69
2024-05-09T12:17:59.064Z,98372.16
2024-05-09T12:19:37.688Z,98360.38
2024-05-09T12:21:17.083Z,98368.41
2024-05-09T12:22:50.215Z,98363.59
2024-05-09T12:24:25.111Z,98367.69
2024-05-09T12:26:01.039Z,98372.50
2024-05-09T12:27:36.424Z,98380.91
2024-05-09T12:29:09.537Z,98391.53
2024-05-09T12:30:45.646Z,98405.94
2024-05-09T12:32:18.834Z,98392.78
2024-05-09T12:33:54.433Z,98384.94
2024-05-09T12:35:33.192Z,98402.81
2024-05-09T12:37:06.686Z,98414.47
2024-05-09T12:38:41.082Z,98413.78
2024-05-09T12:40:23.203Z,98421.38
2024-05-09T12:42:05.479Z,98406.75
2024-05-09T12:43:41.400Z,98397.34
2024-05-09T12:45:14.454Z,98402.31
2024-05-09T12:46:47.659Z,98402.16
2024-05-09T12:48:23.596Z,98384.25
2024-05-09T12:49:57.467Z,98382.59
2024-05-09T12:51:36.150Z,98360.16
2024-05-09T12:53:09.141Z,98348.72
2024-05-09T12:54:42.273Z,98363.09
2024-05-09T12:56:18.234Z,98331.06
2024-05-09T12:57:51.448Z,98340.03
2024-05-09T12:59:27.172Z,98371.38
2024-05-09T13:01:00.559Z,98371.25
2024-05-09T13:02:36.782Z,98360.91
2024-05-09T13:04:09.983Z,98361.56
2024-05-09T13:05:46.566Z,98360.78
2024-05-09T13:07:22.653Z,98348.66
2024-05-09T13:08:56.335Z,98346.00
2024-05-09T13:10:33.437Z,98360.50
2024-05-09T13:12:07.014Z,98361.38
2024-05-09T13:13:43.030Z,98357.25
2024-05-09T13:15:16.010Z,98345.38
2024-05-09T13:16:49.115Z,98339.66
2024-05-09T13:18:25.215Z,98334.59
2024-05-09T13:19:58.454Z,98337.88
2024-05-09T13:21:31.525Z,98336.88
2024-05-09T13:23:10.013Z,98327.19
2024-05-09T13:24:43.318Z,98304.03
2024-05-09T13:26:18.777Z,98299.41
2024-05-09T13:27:54.867Z,98310.47
2024-05-09T13:29:28.314Z,98325.94
2024-05-09T13:31:04.543Z,98344.66
2024-05-09T13:32:37.808Z,98344.50
2024-05-09T13:34:13.403Z,98349.03
2024-05-09T13:35:50.984Z,98366.16
2024-05-09T13:37:24.667Z,98362.13
2024-05-09T13:39:00.846Z,98360.75
2024-05-09T13:40:36.940Z,98350.03
2024-05-09T13:42:10.079Z,98338.19
2024-05-09T13:43:45.789Z,98327.56
2024-05-09T13:45:18.763Z,98307.00
2024-05-09T13:46:52.399Z,98312.69
2024-05-09T13:48:28.760Z,98307.69
2024-05-09T13:50:02.798Z,98327.00
2024-05-09T13:51:38.228Z,98323.63
2024-05-09T13:53:13.923Z,98330.13
2024-05-09T13:54:49.559Z,98327.25
2024-05-09T13:56:22.630Z,98317.59
2024-05-09T13:57:58.943Z,98326.66
2024-05-09T13:59:33.684Z,98333.50
2024-05-09T14:01:07.314Z,98314.53
2024-05-09T14:02:43.219Z,98303.06
2024-05-09T14:04:17.787Z,98328.28
2024-05-09T14:05:51.964Z,98297.47
2024-05-09T14:07:28.104Z,98312.06
2024-05-09T14:09:01.443Z,98300.47
2024-05-09T14:10:44.039Z,98280.59
2024-05-09T14:12:17.624Z,98275.25
2024-05-09T14:13:53.358Z,98272.75
2024-05-09T14:15:29.029Z,98259.19
2024-05-09T14:17:02.170Z,98253.38
2024-05-09T14:18:36.017Z,98254.63
2024-05-09T14:20:14.203Z,98256.56
2024-05-09T14:21:49.630Z,98255.69
2024-05-09T14:23:24.817Z,98244.69
2024-05-09T14:25:00.865Z,98245.78
2024-05-09T14:26:37.223Z,98256.75
2024-05-09T14:28:10.446Z,98260.16
2024-05-09T14:29:46.005Z,98258.66
2024-05-09T14:31:19.255Z,98265.28
2024-05-09T14:32:52.458Z,98274.25
2024-05-09T14:34:28.276Z,98269.44
2024-05-09T14:36:01.591Z,98279.88
2024-05-09T14:37:39.647Z,98278.50
2024-05-09T14:39:12.716Z,98277.72
2024-05-09T14:40:45.958Z,98268.72
2024-05-09T14:42:24.454Z,98238.38
2024-05-09T14:43:57.415Z,98242.16
2024-05-09T14:45:30.543Z,98236.97
2024-05-09T14:47:06.841Z,98251.94
2024-05-09T14:48:42.493Z,98250.06
2024-05-09T14:50:23.756Z,98244.63
2024-05-09T14:52:04.283Z,98249.28
2024-05-09T14:53:37.303Z,98230.19
2024-05-09T14:55:12.308Z,98224.53
2024-05-09T14:56:48.503Z,98239.13
2024-05-09T14:58:24.733Z,98223.63
2024-05-09T14:59:57.852Z,98218.13
2024-05-09T15:01:33.827Z,98221.47
2024-05-09T15:03:07.033Z,98224.03
2024-05-09T15:04:41.962Z,98225.00
2024-05-09T15:06:17.927Z,98212.69
2024-05-09T15:07:51.212Z,98216.50
2024-05-09T15:09:26.958Z,98206.97
2024-05-09T15:11:00.021Z,98215.41
2024-05-09T15:12:33.336Z,98222.88
2024-05-09T15:14:11.989Z,98219.22
2024-05-09T15:15:45.143Z,98210.97
2024-05-09T15:17:18.375Z,98210.63
2024-05-09T15:18:54.572Z,98205.75
2024-05-09T15:20:34.387Z,98193.22
2024-05-09T15:22:11.704Z,98199.75
2024-05-09T15:23:47.991Z,98191.28
2024-05-09T15:25:20.959Z,98204.84
2024-05-09T15:26:54.250Z,98205.53
2024-05-09T15:28:30.178Z,98204.28
2024-05-09T15:30:10.517Z,98197.53
2024-05-09T15:31:46.509Z,98196.44
2024-05-09T15:33:21.475Z,98196.00
2024-05-09T15:34:54.774Z,98198.22
2024-05-09T15:36:30.367Z,98184.81
2024-05-09T15:38:04.451Z,98191.72
2024-05-09T15:39:40.467Z,98193.91
2024-05-09T15:41:13.659Z,98199.63
2024-05-09T15:42:49.513Z,98190.13
2024-05-09T15:44:22.617Z,98191.91
2024-05-09T15:45:58.685Z,98191.84
2024-05-09T15:47:38.018Z,98183.91
2024-05-09T15:49:11.697Z,98181.63
2024-05-09T15:50:45.298Z,98187.66
2024-05-09T15:52:21.144Z,98179.78
2024-05-09T15:53:54.188Z,98178.06
2024-05-09T15:55:28.189Z,98179.56
2024-05-09T15:57:04.139Z,98175.66
2024-05-09T15:58:37.347Z,98177.50
2024-05-09T16:00:21.461Z,98183.09
2024-05-09T16:02:04.126Z,98183.25
2024-05-09T16:03:37.494Z,98176.38
2024-05-09T16:05:10.705Z,98179.44
2024-05-09T16:06:48.366Z,98175.53
2024-05-09T16:08:21.634Z,98176.59
2024-05-09T16:09:54.859Z,98174.66
2024-05-09T16:11:30.549Z,98177.75
2024-05-09T16:13:04.277Z,98173.88
2024-05-09T16:14:37.458Z,98172.38
2024-05-09T16:16:13.257Z,98176.59
2024-05-09T16:17:49.088Z,98164.22
2024-05-09T16:19:22.454Z,98168.69
2024-05-09T16:21:00.320Z,98165.50
2024-05-09T16:22:33.417Z,98169.38
2024-05-09T16:24:07.298Z,98174.66
2024-05-09T16:25:45.345Z,98178.69
2024-05-09T16:27:19.297Z,98162.66
2024-05-09T16:28:52.878Z,98165.97
2024-05-09T16:30:34.503Z,98156.69
2024-05-09T16:32:08.796Z,98169.41
2024-05-09T16:33:47.623Z,98163.00
2024-05-09T16:35:21.041Z,98169.84
2024-05-09T16:36:56.084Z,98158.75
2024-05-09T16:38:34.400Z,98168.59
2024-05-09T16:40:21.406Z,98164.25
2024-05-09T16:41:58.811Z,98152.78
2024-05-09T16:43:34.474Z,98161.94
2024-05-09T16:45:08.235Z,98161.25
2024-05-09T16:46:41.492Z,98158.06
2024-05-09T16:48:17.361Z,98159.19
2024-05-09T16:49:53.131Z,98155.09
2024-05-09T16:51:26.520Z,98153.84
2024-05-09T16:53:02.482Z,98156.03
2024-05-09T16:54:35.896Z,98159.44
2024-05-09T16:56:11.491Z,98148.69
2024-05-09T16:57:47.433Z,98161.63
2024-05-09T16:59:23.150Z,98154.63
2024-05-09T17:00:56.453Z,98151.78
2024-05-09T17:02:32.692Z,98155.31
2024-05-09T17:04:07.745Z,98156.22
2024-05-09T17:05:45.969Z,98151.31
2024-05-09T17:07:22.698Z,98152.31
2024-05-09T17:08:59.094Z,98156.47
2024-05-09T17:10:35.952Z,98172.19
2024-05-09T17:12:11.906Z,98150.16
2024-05-09T17:13:48.228Z,98160.13
2024-05-09T17:15:24.027Z,98164.47
2024-05-09T17:16:57.133Z,98150.06
2024-05-09T17:18:33.522Z,98152.56
2024-05-09T17:20:12.463Z,98151.31
2024-05-09T17:21:53.842Z,98149.94
2024-05-09T17:23:31.808Z,98138.50
2024-05-09T17:25:09.365Z,98146.91
2024-05-09T17:26:42.645Z,98147.97
2024-05-09T17:28:15.884Z,98145.88
2024-05-09T17:29:52.135Z,98147.63
2024-05-09T17:31:25.291Z,98145.88
2024-05-09T17:33:00.101Z,98151.59
2024-05-09T17:34:35.895Z,98146.44
2024-05-09T17:36:09.346Z,98153.19
2024-05-09T17:37:47.591Z,98152.25
2024-05-09T17:39:20.577Z,98146.06
2024-05-09T17:40:56.598Z,98149.34
2024-05-09T17:42:29.615Z,98147.38
2024-05-09T17:44:05.050Z,98134.88
2024-05-09T17:45:41.975Z,98141.25
2024-05-09T17:47:15.492Z,98146.09
2024-05-09T17:48:48.685Z,98141.88
2024-05-09T17:50:31.216Z,98151.34
2024-05-09T17:52:08.791Z,98155.00
2024-05-09T17:53:47.999Z,98151.75
2024-05-09T17:55:21.557Z,98166.97
2024-05-09T17:56:54.841Z,98149.13
2024-05-09T17:58:30.679Z,98158.56
2024-05-09T18:00:07.031Z,98153.41
2024-05-09T18:01:44.676Z,98157.00
2024-05-09T18:03:20.362Z,98153.66
2024-05-09T18:04:53.450Z,98153.50
2024-05-09T18:06:26.603Z,98165.75
2024-05-09T18:08:02.460Z,98156.22
2024-05-09T18:09:38.023Z,98160.53
2024-05-09T18:11:13.798Z,98158.41
2024-05-09T18:12:47.094Z,98159.38
2024-05-09T18:14:20.499Z,98149.28
2024-05-09T18:15:56.121Z,98155.94
2024-05-09T18:17:29.478Z,98155.63
2024-05-09T18:19:05.413Z,98155.06
2024-05-09T18:20:44.832Z,98163.78
2024-05-09T18:22:19.165Z,98163.59
2024-05-09T18:23:58.062Z,98156.72
2024-05-09T18:25:35.236Z,98163.47
2024-05-09T18:27:11.371Z,98163.47
2024-05-09T18:28:45.214Z,98165.88
2024-05-09T18:30:27.428Z,98158.03
2024-05-09T18:32:08.128Z,98169.16
2024-05-09T18:33:44.085Z,98161.94
2024-05-09T18:35:17.121Z,98153.28
2024-05-09T18:36:52.894Z,98159.25
2024-05-09T18:38:27.157Z,98166.00
2024-05-09T18:40:00.705Z,98170.69
2024-05-09T18:41:38.979Z,98163.31
2024-05-09T18:43:12.145Z,98167.06
2024-05-09T18:44:45.905Z,98163.81
2024-05-09T18:46:21.437Z,98168.66
2024-05-09T18:47:55.222Z,98174.00